createdAt,value
2023-02-19T00:01:53.644Z,13.25
2023-02-19T00:04:23.947Z,13.60
2023-02-19T00:06:53.812Z,14.93
2023-02-19T00:09:22.129Z,13.45
2023-02-19T00:11:51.185Z,14.55
2023-02-19T00:14:21.507Z,14.23
2023-02-19T00:16:50.401Z,14.23
2023-02-19T00:19:20.483Z,14.40
2023-02-19T00:21:49.363Z,15.27
2023-02-19T00:24:19.068Z,15.73
2023-02-19T00:26:47.514Z,16.30
2023-02-19T00:29:17.729Z,16.33
2023-02-19T00:31:47.356Z,16.90
2023-02-19T00:34:16.223Z,18.35
2023-02-19T00:36:45.380Z,18.05
2023-02-19T00:39:16.098Z,16.25
2023-02-19T00:41:46.474Z,16.80
2023-02-19T00:44:15.966Z,16.20
2023-02-19T00:46:46.007Z,16.67
2023-02-19T00:49:18.281Z,17.05
2023-02-19T00:51:46.737Z,17.40
2023-02-19T00:54:15.608Z,18.38
2023-02-19T00:56:45.321Z,17.45
2023-02-19T00:59:15.382Z,17.95
2023-02-19T01:01:45.477Z,17.48
2023-02-19T01:04:15.130Z,18.55
2023-02-19T01:06:43.548Z,19.10
2023-02-19T01:09:11.792Z,16.40
2023-02-19T01:11:40.562Z,17.00
2023-02-19T01:14:10.909Z,18.45
2023-02-19T01:16:39.532Z,16.65
2023-02-19T01:19:07.921Z,17.80
2023-02-19T01:21:36.237Z,17.50
2023-02-19T01:24:05.120Z,16.97
2023-02-19T01:26:35.038Z,16.30
2023-02-19T01:29:05.739Z,14.93
2023-02-19T01:31:35.511Z,15.80
2023-02-19T01:34:06.457Z,15.50
2023-02-19T01:36:35.610Z,15.48
2023-02-19T01:39:05.731Z,16.40
2023-02-19T01:41:39.476Z,15.40
2023-02-19T01:44:09.626Z,14.98
2023-02-19T01:46:41.233Z,14.95
2023-02-19T01:49:12.929Z,14.75
2023-02-19T01:51:45.535Z,15.70
2023-02-19T01:54:17.804Z,14.70
2023-02-19T01:56:47.732Z,15.90
2023-02-19T01:59:17.352Z,16.20
2023-02-19T02:01:47.152Z,15.95
2023-02-19T02:04:16.711Z,16.17
2023-02-19T02:06:50.545Z,15.70
2023-02-19T02:09:38.308Z,16.57
2023-02-19T02:12:06.965Z,15.05
2023-02-19T02:14:37.712Z,14.35
2023-02-19T02:17:14.744Z,13.53
2023-02-19T02:20:03.744Z,12.52
2023-02-19T02:22:36.194Z,12.77
2023-02-19T02:25:31.090Z,11.60
2023-02-19T02:28:15.068Z,11.77
2023-02-19T02:30:48.306Z,10.70
2023-02-19T02:33:24.378Z,10.60
2023-02-19T02:35:55.139Z,9.13
2023-02-19T02:38:28.250Z,8.30
2023-02-19T02:40:57.108Z,8.43
2023-02-19T02:43:26.335Z,9.17
2023-02-19T02:45:57.031Z,9.00
2023-02-19T02:48:41.958Z,10.35
2023-02-19T02:51:18.918Z,10.00
2023-02-19T02:54:28.743Z,9.05
2023-02-19T02:56:59.454Z,9.43
2023-02-19T02:59:35.813Z,9.20
2023-02-19T03:02:14.541Z,8.35
2023-02-19T03:05:13.589Z,7.55
2023-02-19T03:07:46.609Z,7.72
2023-02-19T03:10:20.627Z,7.18
2023-02-19T03:13:09.610Z,7.28
2023-02-19T03:16:00.228Z,7.75
2023-02-19T03:18:50.119Z,8.40
2023-02-19T03:21:22.014Z,8.40
2023-02-19T03:24:09.714Z,9.43
2023-02-19T03:26:40.066Z,9.20
2023-02-19T03:29:26.201Z,9.00
2023-02-19T03:32:08.076Z,9.32
2023-02-19T03:34:40.198Z,9.13
2023-02-19T03:37:13.310Z,10.57
2023-02-19T03:39:45.350Z,9.95
2023-02-19T03:42:26.100Z,10.43
2023-02-19T03:45:07.846Z,10.65
2023-02-19T03:47:42.095Z,9.17
2023-02-19T03:50:18.524Z,10.23
2023-02-19T03:52:58.660Z,9.98
2023-02-19T03:55:31.422Z,10.00
2023-02-19T03:58:10.142Z,9.90
2023-02-19T04:00:44.039Z,10.45
2023-02-19T04:03:19.341Z,11.20
2023-02-19T04:05:55.038Z,11.20
2023-02-19T04:08:25.403Z,10.68
2023-02-19T04:11:01.694Z,11.95
2023-02-19T04:13:37.366Z,9.52
2023-02-19T04:16:09.983Z,10.23
2023-02-19T04:18:42.055Z,9.35
2023-02-19T04:21:12.811Z,10.37
2023-02-19T04:23:44.463Z,9.35
2023-02-19T04:26:14.841Z,9.07
2023-02-19T04:28:44.229Z,8.88
2023-02-19T04:31:14.132Z,8.35
2023-02-19T04:33:42.654Z,8.35
2023-02-19T04:36:12.733Z,9.60
2023-02-19T04:38:40.975Z,9.38
2023-02-19T04:41:10.965Z,10.77
2023-02-19T04:43:39.393Z,9.52
2023-02-19T04:46:07.851Z,9.80
2023-02-19T04:48:36.125Z,9.07
2023-02-19T04:51:07.218Z,8.40
2023-02-19T04:53:37.249Z,9.57
2023-02-19T04:56:09.819Z,8.60
2023-02-19T04:58:38.282Z,8.50
2023-02-19T05:01:06.719Z,8.37
2023-02-19T05:03:36.045Z,7.95
2023-02-19T05:06:05.745Z,8.60
2023-02-19T05:08:34.744Z,8.63
2023-02-19T05:11:06.583Z,8.20
2023-02-19T05:13:35.502Z,9.20
2023-02-19T05:16:07.448Z,8.05
2023-02-19T05:18:36.145Z,7.60
2023-02-19T05:21:04.918Z,8.05
2023-02-19T05:23:33.362Z,8.60
2023-02-19T05:26:07.686Z,8.63
2023-02-19T05:28:36.252Z,8.38
2023-02-19T05:31:07.171Z,8.10
2023-02-19T05:33:35.729Z,8.40
2023-02-19T05:36:07.528Z,7.63
2023-02-19T05:38:36.266Z,8.77
2023-02-19T05:41:15.004Z,7.97
2023-02-19T05:43:44.608Z,7.97
2023-02-19T05:46:14.291Z,8.88
2023-02-19T05:48:43.085Z,7.72
2023-02-19T05:51:13.198Z,9.07
2023-02-19T05:53:42.955Z,8.95
2023-02-19T05:56:27.702Z,8.90
2023-02-19T05:58:56.350Z,8.35
2023-02-19T06:01:26.530Z,9.07
2023-02-19T06:03:57.380Z,9.07
2023-02-19T06:06:26.902Z,8.00
2023-02-19T06:08:55.582Z,8.50
2023-02-19T06:11:25.699Z,7.90
2023-02-19T06:13:53.929Z,7.88
2023-02-19T06:16:22.723Z,8.00
2023-02-19T06:18:51.558Z,8.02
2023-02-19T06:21:20.152Z,6.95
2023-02-19T06:23:48.582Z,7.88
2023-02-19T06:26:18.810Z,7.22
2023-02-19T06:28:50.116Z,7.47
2023-02-19T06:31:19.443Z,7.20
2023-02-19T06:33:48.055Z,8.23
2023-02-19T06:36:18.044Z,9.37
2023-02-19T06:38:46.809Z,8.98
2023-02-19T06:41:15.429Z,8.18
2023-02-19T06:43:43.762Z,7.78
2023-02-19T06:46:14.206Z,7.68
2023-02-19T06:48:45.738Z,8.13
2023-02-19T06:51:15.837Z,6.75
2023-02-19T06:53:44.194Z,8.23
2023-02-19T06:56:25.294Z,7.40
2023-02-19T06:58:54.843Z,6.60
2023-02-19T07:01:25.155Z,6.55
2023-02-19T07:03:53.627Z,7.20
2023-02-19T07:06:22.979Z,6.90
2023-02-19T07:08:51.798Z,6.40
2023-02-19T07:11:20.465Z,6.20
2023-02-19T07:13:48.743Z,6.00
2023-02-19T07:16:18.132Z,5.55
2023-02-19T07:18:47.788Z,6.00
2023-02-19T07:21:17.159Z,5.55
2023-02-19T07:23:46.358Z,5.70
2023-02-19T07:26:16.832Z,6.82
2023-02-19T07:28:46.060Z,6.50
2023-02-19T07:31:15.387Z,5.85
2023-02-19T07:33:44.680Z,6.60
2023-02-19T07:36:15.347Z,7.85
2023-02-19T07:38:43.662Z,7.68
2023-02-19T07:41:12.463Z,7.75
2023-02-19T07:43:41.765Z,8.57
2023-02-19T07:46:11.649Z,7.00
2023-02-19T07:48:41.475Z,7.75
2023-02-19T07:51:13.257Z,7.20
2023-02-19T07:53:43.118Z,7.10
2023-02-19T07:56:12.988Z,7.82
2023-02-19T07:58:41.976Z,6.85
2023-02-19T08:01:11.766Z,6.00
2023-02-19T08:03:39.986Z,6.40
2023-02-19T08:06:11.097Z,6.53
2023-02-19T08:08:39.760Z,5.88
2023-02-19T08:11:26.702Z,4.65
2023-02-19T08:13:55.031Z,5.88
2023-02-19T08:16:37.199Z,6.20
2023-02-19T08:19:10.693Z,6.82
2023-02-19T08:21:39.926Z,6.05
2023-02-19T08:24:08.432Z,7.00
2023-02-19T08:26:39.199Z,6.30
2023-02-19T08:29:07.834Z,5.90
2023-02-19T08:31:36.575Z,6.30
2023-02-19T08:34:05.199Z,6.30
2023-02-19T08:36:33.637Z,6.53
2023-02-19T08:39:01.882Z,5.80
2023-02-19T08:41:30.125Z,5.85
2023-02-19T08:43:59.781Z,6.30
2023-02-19T08:46:28.050Z,6.60
2023-02-19T08:48:56.282Z,6.45
2023-02-19T08:51:24.464Z,6.50
2023-02-19T08:53:52.702Z,7.00
2023-02-19T08:56:20.963Z,8.02
2023-02-19T08:58:49.298Z,11.60
2023-02-19T09:01:19.464Z,7.43
2023-02-19T09:03:47.802Z,11.65
2023-02-19T09:06:17.869Z,6.23
2023-02-19T09:08:46.189Z,10.52
2023-02-19T09:11:14.871Z,6.75
2023-02-19T09:13:43.654Z,6.28
2023-02-19T09:16:12.930Z,9.43
2023-02-19T09:18:42.499Z,7.60
2023-02-19T09:21:11.213Z,5.90
2023-02-19T09:23:39.678Z,6.18
2023-02-19T09:26:10.216Z,7.00
2023-02-19T09:28:41.856Z,5.20
2023-02-19T09:31:13.453Z,9.18
2023-02-19T09:33:45.661Z,4.20
2023-02-19T09:36:14.897Z,7.03
2023-02-19T09:38:43.416Z,5.17
2023-02-19T09:41:19.472Z,4.60
2023-02-19T09:43:48.035Z,5.50
2023-02-19T09:46:27.244Z,4.70
2023-02-19T09:49:07.719Z,5.70
2023-02-19T09:51:38.962Z,6.63
2023-02-19T09:54:16.097Z,5.47
2023-02-19T09:56:44.646Z,5.63
2023-02-19T09:59:21.750Z,5.20
2023-02-19T10:01:53.285Z,4.53
2023-02-19T10:04:22.922Z,4.47
2023-02-19T10:06:51.757Z,4.65
2023-02-19T10:09:23.620Z,4.55
2023-02-19T10:11:54.813Z,4.40
2023-02-19T10:14:30.968Z,3.90
2023-02-19T10:17:02.163Z,4.55
2023-02-19T10:19:32.081Z,4.35
2023-02-19T10:22:01.455Z,5.45
2023-02-19T10:24:31.974Z,1.60
2023-02-19T10:27:00.138Z,1.52
2023-02-19T10:29:28.359Z,1.40
2023-02-19T10:32:18.240Z,0.80
2023-02-19T10:34:48.229Z,0.80
2023-02-19T10:37:18.901Z,0.88
2023-02-19T10:39:49.078Z,1.30
2023-02-19T10:42:20.088Z,0.90
2023-02-19T10:44:52.938Z,0.80
2023-02-19T10:47:24.628Z,1.00
2023-02-19T10:49:58.127Z,1.00
2023-02-19T10:52:29.649Z,0.80
2023-02-19T10:54:59.220Z,0.80
2023-02-19T10:57:33.115Z,1.48
2023-02-19T11:00:04.969Z,1.05
2023-02-19T11:02:33.533Z,1.20
2023-02-19T11:05:19.879Z,1.20
2023-02-19T11:07:50.977Z,1.00
2023-02-19T11:10:29.295Z,1.00
2023-02-19T11:13:00.392Z,1.20
2023-02-19T11:15:30.974Z,1.00
2023-02-19T11:18:03.772Z,1.20
2023-02-19T11:20:33.932Z,1.30
2023-02-19T11:23:17.987Z,1.00
2023-02-19T11:25:48.468Z,1.00
2023-02-19T11:28:29.469Z,1.10
2023-02-19T11:31:16.005Z,0.90
2023-02-19T11:33:53.062Z,1.40
2023-02-19T11:36:43.736Z,0.93
2023-02-19T11:39:22.597Z,0.70
2023-02-19T11:42:29.261Z,1.00
2023-02-19T11:45:17.476Z,1.50
2023-02-19T11:48:00.760Z,1.30
2023-02-19T11:50:42.713Z,1.20
2023-02-19T11:53:22.881Z,1.27
2023-02-19T11:56:01.070Z,2.38
2023-02-19T11:58:58.002Z,1.70
2023-02-19T12:01:39.811Z,1.10
2023-02-19T12:04:41.495Z,1.20
2023-02-19T12:07:21.209Z,1.05
2023-02-19T12:10:05.237Z,1.17
2023-02-19T12:12:57.648Z,1.20
2023-02-19T12:15:36.438Z,1.10
2023-02-19T12:18:35.483Z,1.40
2023-02-19T12:21:15.941Z,1.00
2023-02-19T12:24:07.119Z,1.30
2023-02-19T12:26:45.142Z,2.17
2023-02-19T12:29:26.283Z,1.30
2023-02-19T12:32:30.578Z,1.05
2023-02-19T12:35:26.823Z,0.80
2023-02-19T12:38:08.085Z,1.05
2023-02-19T12:40:51.247Z,1.60
2023-02-19T12:43:22.525Z,1.00
2023-02-19T12:45:55.795Z,0.90
2023-02-19T12:48:31.017Z,1.00
2023-02-19T12:51:04.082Z,1.45
2023-02-19T12:53:43.151Z,1.00
2023-02-19T12:56:18.511Z,0.90
2023-02-19T12:58:51.864Z,0.90
2023-02-19T13:01:26.481Z,1.00
2023-02-19T13:04:12.131Z,1.20
2023-02-19T13:06:46.279Z,1.10
2023-02-19T13:09:19.545Z,1.00
2023-02-19T13:11:51.726Z,1.10
2023-02-19T13:14:28.555Z,1.10
2023-02-19T13:17:01.510Z,1.10
2023-02-19T13:19:31.800Z,1.10
2023-02-19T13:22:25.936Z,1.50
2023-02-19T13:24:56.020Z,1.90
2023-02-19T13:27:53.125Z,1.50
2023-02-19T13:30:41.120Z,1.70
2023-02-19T13:33:24.022Z,1.20
2023-02-19T13:36:22.584Z,1.60
2023-02-19T13:38:51.428Z,1.80
2023-02-19T13:41:22.818Z,2.00
2023-02-19T13:43:58.445Z,1.70
2023-02-19T13:46:36.764Z,2.35
2023-02-19T13:49:43.973Z,1.88
2023-02-19T13:52:40.857Z,1.70
2023-02-19T13:55:48.527Z,1.30
2023-02-19T13:58:50.089Z,1.70
2023-02-19T14:01:18.562Z,1.70
2023-02-19T14:03:54.633Z,1.50
2023-02-19T14:06:22.898Z,1.30
2023-02-19T14:08:56.054Z,1.60
2023-02-19T14:12:01.568Z,1.98
2023-02-19T14:14:37.013Z,1.83
2023-02-19T14:17:25.666Z,2.00
2023-02-19T14:19:57.716Z,2.45
2023-02-19T14:23:05.330Z,2.13
2023-02-19T14:25:45.972Z,2.40
2023-02-19T14:28:27.175Z,2.60
2023-02-19T14:30:57.870Z,3.20
2023-02-19T14:33:28.642Z,2.90
2023-02-19T14:36:01.914Z,2.70
2023-02-19T14:38:36.893Z,2.72
2023-02-19T14:41:06.562Z,2.90
2023-02-19T14:43:36.378Z,3.03
2023-02-19T14:46:09.420Z,3.20
2023-02-19T14:48:41.570Z,2.90
2023-02-19T14:51:16.099Z,3.55
2023-02-19T14:53:46.193Z,3.17
2023-02-19T14:56:22.464Z,2.25
2023-02-19T14:59:09.246Z,1.50
2023-02-19T15:01:37.797Z,0.90
2023-02-19T15:04:07.228Z,1.17
2023-02-19T15:06:37.429Z,1.10
2023-02-19T15:09:08.086Z,1.10
2023-02-19T15:11:37.091Z,1.25
2023-02-19T15:14:07.656Z,1.17
2023-02-19T15:16:36.967Z,0.90
2023-02-19T15:19:09.191Z,1.17
2023-02-19T15:21:44.461Z,1.50
2023-02-19T15:24:16.528Z,1.80
2023-02-19T15:26:50.361Z,1.80
2023-02-19T15:29:20.456Z,2.22
2023-02-19T15:31:50.407Z,2.10
2023-02-19T15:34:20.974Z,2.33
2023-02-19T15:36:53.306Z,2.00
2023-02-19T15:39:24.439Z,2.83
2023-02-19T15:41:59.099Z,2.33
2023-02-19T15:44:37.973Z,2.58
2023-02-19T15:47:16.018Z,3.35
2023-02-19T15:49:53.172Z,3.90
2023-02-19T15:52:32.024Z,4.20
2023-02-19T15:55:06.018Z,5.10
2023-02-19T15:57:42.189Z,5.45
2023-02-19T16:00:16.539Z,4.70
2023-02-19T16:02:45.904Z,5.07
2023-02-19T16:05:17.904Z,4.28
2023-02-19T16:07:47.558Z,4.38
2023-02-19T16:10:24.390Z,4.00
2023-02-19T16:13:00.228Z,4.15
2023-02-19T16:15:29.887Z,3.85
2023-02-19T16:17:59.293Z,4.65
2023-02-19T16:20:30.250Z,4.00
2023-02-19T16:23:04.163Z,4.80
2023-02-19T16:25:37.865Z,5.07
2023-02-19T16:28:13.968Z,4.33
2023-02-19T16:30:43.216Z,4.13
2023-02-19T16:33:22.185Z,5.10
2023-02-19T16:35:52.413Z,4.25
2023-02-19T16:38:22.315Z,4.40
2023-02-19T16:41:13.474Z,4.45
2023-02-19T16:43:43.933Z,4.60
2023-02-19T16:46:13.818Z,4.60
2023-02-19T16:48:42.187Z,3.45
2023-02-19T16:51:25.360Z,3.90
2023-02-19T16:53:55.185Z,3.83
2023-02-19T16:56:23.857Z,4.20
2023-02-19T16:58:52.166Z,4.45
2023-02-19T17:01:20.451Z,3.50
2023-02-19T17:03:48.896Z,3.95
2023-02-19T17:06:17.550Z,3.97
2023-02-19T17:08:46.232Z,3.40
2023-02-19T17:11:17.940Z,3.50
2023-02-19T17:13:47.564Z,3.50
2023-02-19T17:16:20.166Z,3.70
2023-02-19T17:18:48.611Z,4.20
2023-02-19T17:21:19.204Z,4.30
2023-02-19T17:23:47.787Z,3.88
2023-02-19T17:26:18.701Z,4.70
2023-02-19T17:28:47.052Z,4.20
2023-02-19T17:31:15.539Z,4.10
2023-02-19T17:33:44.506Z,4.03
2023-02-19T17:36:18.696Z,4.80
2023-02-19T17:38:47.348Z,6.70
2023-02-19T17:41:16.964Z,4.50
2023-02-19T17:43:45.704Z,5.00
2023-02-19T17:46:16.889Z,5.20
2023-02-19T17:48:45.435Z,4.38
2023-02-19T17:51:14.082Z,5.00
2023-02-19T17:53:42.900Z,4.70
2023-02-19T17:56:16.714Z,4.30
2023-02-19T17:58:46.365Z,4.70
2023-02-19T18:01:15.253Z,5.40
2023-02-19T18:03:44.359Z,5.72
2023-02-19T18:06:12.785Z,10.00
2023-02-19T18:08:42.152Z,7.38
2023-02-19T18:11:10.658Z,8.50
2023-02-19T18:13:39.261Z,5.88
2023-02-19T18:16:09.902Z,6.63
2023-02-19T18:18:38.492Z,6.00
2023-02-19T18:21:10.404Z,6.32
2023-02-19T18:23:39.269Z,6.20
2023-02-19T18:26:10.449Z,6.30
2023-02-19T18:28:39.254Z,4.30
2023-02-19T18:31:09.482Z,2.50
2023-02-19T18:33:37.786Z,1.80
2023-02-19T18:36:11.413Z,2.17
2023-02-19T18:38:40.160Z,2.10
2023-02-19T18:41:13.416Z,1.60
2023-02-19T18:43:42.642Z,1.40
2023-02-19T18:46:12.578Z,1.70
2023-02-19T18:48:41.181Z,2.00
2023-02-19T18:51:11.936Z,2.28
2023-02-19T18:53:40.443Z,1.73
2023-02-19T18:56:09.196Z,2.22
2023-02-19T18:58:37.432Z,2.60
2023-02-19T19:01:06.106Z,2.60
2023-02-19T19:03:36.622Z,2.55
2023-02-19T19:06:05.621Z,2.77
2023-02-19T19:08:33.863Z,3.58
2023-02-19T19:11:02.090Z,2.60
2023-02-19T19:13:30.342Z,3.00
2023-02-19T19:15:58.588Z,3.00
2023-02-19T19:18:27.954Z,3.88
2023-02-19T19:21:03.101Z,3.40
2023-02-19T19:23:31.626Z,3.30
2023-02-19T19:25:59.874Z,4.20
2023-02-19T19:28:28.159Z,4.20
2023-02-19T19:30:56.403Z,4.05
2023-02-19T19:33:27.731Z,5.00
2023-02-19T19:35:57.556Z,5.07
2023-02-19T19:38:25.862Z,6.70
2023-02-19T19:40:54.235Z,5.63
2023-02-19T19:43:22.577Z,4.50
2023-02-19T19:45:51.290Z,4.05
2023-02-19T19:48:19.589Z,4.20
2023-02-19T19:50:47.995Z,3.92
2023-02-19T19:53:17.949Z,4.60
2023-02-19T19:55:46.437Z,4.00
2023-02-19T19:58:14.646Z,3.70
2023-02-19T20:00:42.906Z,3.72
2023-02-19T20:03:11.229Z,4.22
2023-02-19T20:05:39.510Z,4.78
2023-02-19T20:08:07.827Z,5.63
2023-02-19T20:10:37.526Z,6.30
2023-02-19T20:13:06.444Z,4.20
2023-02-19T20:15:35.011Z,5.15
2023-02-19T20:18:04.089Z,4.82
2023-02-19T20:20:32.400Z,7.03
2023-02-19T20:23:00.567Z,7.15
2023-02-19T20:25:29.203Z,5.50
2023-02-19T20:27:58.788Z,5.97
2023-02-19T20:30:27.136Z,5.15
2023-02-19T20:32:55.714Z,5.03
2023-02-19T20:35:28.603Z,4.90
2023-02-19T20:37:57.260Z,5.10
2023-02-19T20:40:27.798Z,4.10
2023-02-19T20:42:56.091Z,5.30
2023-02-19T20:45:25.701Z,5.85
2023-02-19T20:47:54.106Z,6.10
2023-02-19T20:50:23.360Z,5.10
2023-02-19T20:52:51.677Z,6.88
2023-02-19T20:55:19.977Z,5.32
2023-02-19T20:57:48.159Z,7.00
2023-02-19T21:00:17.251Z,5.68
2023-02-19T21:02:46.984Z,6.20
2023-02-19T21:05:15.337Z,5.35
2023-02-19T21:07:43.532Z,5.00
2023-02-19T21:10:12.119Z,5.70
2023-02-19T21:12:41.933Z,6.50
2023-02-19T21:15:10.944Z,5.93
2023-02-19T21:17:39.243Z,5.38
2023-02-19T21:20:10.440Z,9.20
2023-02-19T21:22:38.782Z,8.23
2023-02-19T21:25:07.931Z,6.43
2023-02-19T21:27:36.213Z,5.80
2023-02-19T21:30:05.102Z,5.57
2023-02-19T21:32:33.499Z,6.30
2023-02-19T21:35:01.931Z,5.88
2023-02-19T21:37:31.498Z,5.80
2023-02-19T21:40:00.535Z,5.60
2023-02-19T21:42:29.202Z,6.18
2023-02-19T21:44:57.668Z,5.97
2023-02-19T21:47:27.743Z,5.40
2023-02-19T21:49:56.161Z,5.38
2023-02-19T21:52:24.402Z,4.90
2023-02-19T21:54:54.178Z,5.05
2023-02-19T21:57:22.620Z,5.45
2023-02-19T21:59:50.970Z,5.25
2023-02-19T22:02:19.973Z,5.55
2023-02-19T22:04:53.531Z,5.70
2023-02-19T22:07:22.577Z,5.40
2023-02-19T22:09:51.163Z,5.55
2023-02-19T22:12:21.255Z,5.80
2023-02-19T22:14:49.574Z,5.45
2023-02-19T22:17:17.831Z,5.75
2023-02-19T22:19:46.139Z,5.72
2023-02-19T22:22:14.536Z,5.20
2023-02-19T22:24:42.762Z,5.50
2023-02-19T22:27:11.102Z,5.95
2023-02-19T22:29:40.830Z,5.90
2023-02-19T22:32:09.285Z,5.13
2023-02-19T22:34:40.424Z,5.75
2023-02-19T22:37:08.981Z,5.30
2023-02-19T22:39:37.298Z,6.05
2023-02-19T22:42:05.865Z,6.03
2023-02-19T22:44:35.484Z,6.35
2023-02-19T22:47:05.464Z,6.00
2023-02-19T22:49:34.238Z,6.45
2023-02-19T22:52:05.678Z,7.25
2023-02-19T22:54:33.909Z,6.95
2023-02-19T22:57:02.263Z,7.60
2023-02-19T22:59:30.598Z,6.80
2023-02-19T23:01:59.266Z,8.02
2023-02-19T23:04:28.965Z,8.00
2023-02-19T23:06:57.264Z,7.07
2023-02-19T23:09:28.413Z,8.75
2023-02-19T23:12:02.906Z,9.30
2023-02-19T23:14:31.362Z,8.98
2023-02-19T23:16:59.742Z,8.75
2023-02-19T23:19:29.549Z,9.20
2023-02-19T23:21:58.224Z,9.07
2023-02-19T23:24:26.591Z,9.32
2023-02-19T23:26:55.568Z,8.67
2023-02-19T23:29:25.834Z,9.60
2023-02-19T23:31:54.651Z,8.60
2023-02-19T23:34:24.422Z,7.93
2023-02-19T23:36:55.436Z,8.55
2023-02-19T23:39:23.757Z,8.00
2023-02-19T23:41:53.947Z,7.18
2023-02-19T23:44:23.680Z,6.45
2023-02-19T23:46:53.033Z,6.53
2023-02-19T23:49:21.590Z,6.97
2023-02-19T23:51:49.821Z,5.93
2023-02-19T23:54:19.460Z,5.30
2023-02-19T23:56:47.913Z,5.17
2023-02-19T23:59:16.247Z,4.70
